Time;durP1;ratioP1;P1;durP2;ratioP2;P2;SDS_P1;SDS_P2;PMS_P1;PMS_P2;Temp;Humidity;BMP_temperature;BMP_pressure;BME280_temperature;BME280_humidity;BME280_pressure;Samples;Min_cycle;Max_cycle;Signal;HPM_P1;HPM_P2
2022/09/15 00:01:28;;;;;;;2.63;1.88;;;;;;;24.42;100.00;95385.78;5139538;27;20469;-55
2022/09/15 00:03:56;;;;;;;3.47;1.60;;;;;;;24.37;100.00;95384.63;5147578;27;20078;-52
2022/09/15 00:06:25;;;;;;;3.15;1.65;;;;;;;24.96;100.00;95381.00;5145790;27;20078;-51
2022/09/15 00:08:53;;;;;;;3.92;1.75;;;;;;;24.43;100.00;95385.50;5143661;27;20085;-51
2022/09/15 00:11:23;;;;;;;4.28;1.90;;;;;;;25.18;100.00;95388.16;5144670;27;20070;-49
2022/09/15 00:13:53;;;;;;;4.05;1.70;;;;;;;24.68;100.00;95392.97;5139013;27;20521;-52
2022/09/15 00:16:23;;;;;;;4.40;1.90;;;;;;;24.74;100.00;95391.09;5140314;27;20078;-53
2022/09/15 00:18:52;;;;;;;3.90;1.80;;;;;;;24.68;100.00;95395.66;5133219;27;20074;-50
2022/09/15 00:21:23;;;;;;;3.42;1.70;;;;;;;24.56;100.00;95395.84;5146052;27;20073;-50
2022/09/15 00:23:51;;;;;;;;;;;;;;;24.79;100.00;95396.53;5140378;27;20645;-48
2022/09/15 00:26:21;;;;;;;3.28;1.90;;;;;;;24.64;100.00;95389.19;5133147;27;19973;-52
2022/09/15 00:28:50;;;;;;;3.15;1.77;;;;;;;24.68;100.00;95392.16;5139867;27;20477;-55
2022/09/15 00:31:22;;;;;;;2.85;1.80;;;;;;;24.98;100.00;95384.25;5132420;27;20101;-50
2022/09/15 00:33:52;;;;;;;6.28;2.17;;;;;;;25.02;100.00;95371.88;5143088;27;20357;-52
2022/09/15 00:36:21;;;;;;;4.60;2.08;;;;;;;24.96;100.00;95367.53;5157103;27;20126;-48
2022/09/15 00:38:50;;;;;;;4.15;2.00;;;;;;;24.92;100.00;95366.44;5133064;27;20066;-48
2022/09/15 00:41:21;;;;;;;3.58;1.95;;;;;;;24.56;100.00;95355.41;5133802;27;20609;-54
2022/09/15 00:43:53;;;;;;;3.88;1.92;;;;;;;25.43;100.00;95357.75;5151273;27;20082;-55
2022/09/15 00:46:26;;;;;;;2.88;1.80;;;;;;;25.43;100.00;95355.88;5146316;27;20070;-51
2022/09/15 00:49:00;;;;;;;3.90;1.98;;;;;;;24.74;100.00;95359.59;5139582;27;20070;-50
2022/09/15 00:51:35;;;;;;;3.10;2.05;;;;;;;25.44;100.00;95353.97;5142685;27;20070;-52
2022/09/15 00:54:07;;;;;;;2.83;2.03;;;;;;;25.10;100.00;95351.66;5144226;27;20456;-49
2022/09/15 00:56:36;;;;;;;3.10;1.80;;;;;;;24.77;100.00;95348.25;5132807;27;20083;-51
2022/09/15 00:59:08;;;;;;;4.55;1.83;;;;;;;25.04;100.00;95341.91;5147466;27;20090;-49
2022/09/15 01:01:39;;;;;;;3.83;2.08;;;;;;;24.71;100.00;95343.94;5142053;27;20078;-54
2022/09/15 01:04:08;;;;;;;3.78;1.77;;;;;;;24.32;100.00;95343.34;5152163;27;20065;-48
2022/09/15 01:06:37;;;;;;;4.55;1.70;;;;;;;25.06;100.00;95353.28;5144815;27;20489;-54
2022/09/15 01:09:09;;;;;;;2.67;1.80;;;;;;;24.85;100.00;95347.78;5137771;27;20075;-53
2022/09/15 01:11:37;;;;;;;3.20;2.13;;;;;;;25.15;100.00;95353.59;5149106;27;20086;-52
2022/09/15 01:14:06;;;;;;;2.75;1.75;;;;;;;25.25;100.00;95345.53;5147280;27;20086;-54
2022/09/15 01:16:45;;;;;;;4.18;2.08;;;;;;;24.65;100.00;95344.16;5132385;27;20059;-49
2022/09/15 01:19:36;;;;;;;4.55;2.15;;;;;;;24.85;100.00;95339.69;5141389;27;20086;-47
2022/09/15 01:22:12;;;;;;;4.55;2.03;;;;;;;24.32;100.00;95337.97;5138071;27;20074;-49
2022/09/15 01:24:48;;;;;;;2.63;1.60;;;;;;;24.85;100.00;95337.00;5139479;27;20083;-51
2022/09/15 01:27:33;;;;;;;3.17;1.70;;;;;;;25.01;100.00;95339.75;5150285;27;20082;-49
2022/09/15 01:30:13;;;;;;;4.25;1.80;;;;;;;24.83;100.00;95341.00;5136236;27;20453;-53
2022/09/15 01:33:04;;;;;;;4.65;1.70;;;;;;;24.85;100.00;95339.69;5132088;27;20087;-50
2022/09/15 01:35:45;;;;;;;4.32;1.55;;;;;;;24.99;100.00;95339.22;5135652;27;20079;-51
2022/09/15 01:38:19;;;;;;;3.33;1.75;;;;;;;24.94;100.00;95333.78;5143555;27;20082;-49
2022/09/15 01:40:52;;;;;;;2.92;1.63;;;;;;;24.55;100.00;95326.03;5142754;27;20547;-54
2022/09/15 01:43:22;;;;;;;5.32;1.67;;;;;;;25.40;100.00;95334.00;5139203;27;20170;-54
2022/09/15 01:45:52;;;;;;;3.28;1.65;;;;;;;25.18;100.00;95337.69;5143953;27;20089;-54
2022/09/15 01:48:23;;;;;;;2.35;1.50;;;;;;;25.48;100.00;95331.59;5144622;27;20086;-54
2022/09/15 01:50:54;;;;;;;2.53;1.40;;;;;;;25.10;100.00;95332.78;5130821;27;20481;-50
2022/09/15 01:53:23;;;;;;;3.47;1.60;;;;;;;25.24;100.00;95328.53;5136614;27;20078;-52
2022/09/15 01:55:54;;;;;;;2.85;1.73;;;;;;;25.07;100.00;95330.59;5145139;27;20506;-54
2022/09/15 01:58:23;;;;;;;4.30;1.55;;;;;;;25.21;100.00;95331.78;5137795;27;20075;-52
2022/09/15 02:00:57;;;;;;;3.10;1.45;;;;;;;24.92;100.00;95331.38;5135740;27;20480;-53
2022/09/15 02:03:32;;;;;;;4.18;1.80;;;;;;;25.03;100.00;95329.53;5144282;27;20076;-51
2022/09/15 02:06:03;;;;;;;5.07;1.67;;;;;;;25.35;100.00;95329.38;5142623;27;20074;-55
2022/09/15 02:08:37;;;;;;;3.47;1.70;;;;;;;25.29;100.00;95328.56;5131086;27;20075;-53
2022/09/15 02:11:15;;;;;;;3.40;1.70;;;;;;;25.16;100.00;95318.28;5141207;27;20093;-53
2022/09/15 02:13:54;;;;;;;5.43;1.90;;;;;;;24.67;100.00;95318.53;5149599;27;20081;-52
2022/09/15 02:16:25;;;;;;;2.08;1.50;;;;;;;25.09;100.00;95320.38;5137567;27;20089;-50
2022/09/15 02:19:09;;;;;;;2.47;1.58;;;;;;;24.26;100.00;95320.13;5150820;27;20079;-51
2022/09/15 02:21:44;;;;;;;2.40;1.58;;;;;;;24.39;100.00;95327.78;5133553;27;20481;-55
2022/09/15 02:24:17;;;;;;;4.15;2.08;;;;;;;24.44;100.00;95327.84;5137570;27;20090;-53
2022/09/15 02:26:46;;;;;;;3.92;1.90;;;;;;;24.50;100.00;95324.13;5137201;27;20499;-53
2022/09/15 02:29:17;;;;;;;5.20;1.70;;;;;;;24.61;100.00;95319.59;5137981;27;20082;-52
2022/09/15 02:31:47;;;;;;;3.38;1.80;;;;;;;24.89;100.00;95317.59;5136745;27;20086;-51
2022/09/15 02:34:18;;;;;;;2.38;1.77;;;;;;;24.68;100.00;95319.38;5142865;27;20086;-51
2022/09/15 02:36:48;;;;;;;2.25;1.70;;;;;;;24.49;100.00;95321.69;5148618;27;20074;-51
2022/09/15 02:39:19;;;;;;;2.75;1.77;;;;;;;24.85;100.00;95315.41;5144435;27;20115;-51
2022/09/15 02:41:48;;;;;;;3.45;1.85;;;;;;;24.84;100.00;95321.91;5143837;27;20089;-51
2022/09/15 02:44:16;;;;;;;2.40;1.92;;;;;;;24.27;100.00;95319.09;5144187;27;20086;-51
2022/09/15 02:46:46;;;;;;;4.20;2.00;;;;;;;24.66;100.00;95324.22;5143072;27;20081;-51
2022/09/15 02:49:15;;;;;;;4.53;1.88;;;;;;;24.77;100.00;95325.88;5138080;27;20086;-51
2022/09/15 02:51:43;;;;;;;4.50;2.00;;;;;;;25.27;100.00;95327.22;5141863;27;20466;-54
2022/09/15 02:54:11;;;;;;;4.00;2.00;;;;;;;24.96;100.00;95324.38;5136331;27;20497;-53
2022/09/15 02:56:40;;;;;;;3.65;2.00;;;;;;;24.30;100.00;95329.34;5134382;27;20105;-49
2022/09/15 02:59:08;;;;;;;3.75;1.75;;;;;;;24.29;100.00;95325.81;5148561;27;20085;-48
2022/09/15 03:01:38;;;;;;;2.92;1.67;;;;;;;24.53;100.00;95336.25;5137338;27;20096;-53
2022/09/15 03:04:07;;;;;;;3.28;1.90;;;;;;;24.71;100.00;95324.22;5146269;27;20074;-49
2022/09/15 03:06:36;;;;;;;2.65;1.83;;;;;;;24.04;100.00;95331.03;5143868;27;20082;-52
2022/09/15 03:09:07;;;;;;;6.63;1.80;;;;;;;24.44;100.00;95324.34;5131453;27;20576;-51
2022/09/15 03:11:36;;;;;;;5.78;2.17;;;;;;;25.10;100.00;95324.69;5142480;27;20085;-52
2022/09/15 03:14:07;;;;;;;4.43;1.73;;;;;;;24.42;100.00;95330.00;5136617;27;20089;-49
2022/09/15 03:16:35;;;;;;;5.78;1.73;;;;;;;24.80;100.00;95328.06;5142060;27;20453;-50
2022/09/15 03:19:04;;;;;;;2.90;1.98;;;;;;;24.57;100.00;95337.34;5146446;27;20043;-51
2022/09/15 03:21:35;;;;;;;3.83;2.00;;;;;;;24.85;100.00;95341.56;5138300;27;20547;-52
2022/09/15 03:24:03;;;;;;;4.13;1.75;;;;;;;24.39;100.00;95338.56;5140272;27;20484;-54
2022/09/15 03:26:32;;;;;;;2.50;1.80;;;;;;;24.26;100.00;95339.00;5146486;27;20074;-51
2022/09/15 03:29:00;;;;;;;3.70;1.77;;;;;;;24.25;100.00;95329.28;5133825;27;20479;-56
2022/09/15 03:31:28;;;;;;;3.10;1.60;;;;;;;24.05;100.00;95332.63;5145893;27;20074;-54
2022/09/15 03:33:57;;;;;;;4.97;1.70;;;;;;;24.48;100.00;95336.25;5159035;27;20469;-55
2022/09/15 03:36:25;;;;;;;3.45;1.67;;;;;;;24.50;100.00;95336.78;5146858;27;20484;-48
2022/09/15 03:38:55;;;;;;;2.15;1.55;;;;;;;24.20;100.00;95338.16;5147421;27;20491;-55
2022/09/15 03:41:23;;;;;;;;;;;;;;;23.97;100.00;95336.63;5144823;27;20082;-54
2022/09/15 03:43:52;;;;;;;3.50;1.58;;;;;;;23.85;100.00;95333.31;5141691;27;19962;-53
2022/09/15 03:46:20;;;;;;;4.30;1.40;;;;;;;24.18;100.00;95337.59;5144831;27;20082;-53
2022/09/15 03:48:49;;;;;;;4.15;1.70;;;;;;;23.88;100.00;95335.47;5147167;27;20447;-52
2022/09/15 03:51:17;;;;;;;3.83;1.70;;;;;;;24.36;100.00;95334.53;5135098;27;20085;-50
2022/09/15 03:53:45;;;;;;;3.28;1.50;;;;;;;24.56;100.00;95331.16;5147323;27;20085;-48
2022/09/15 03:56:19;;;;;;;4.05;1.60;;;;;;;24.79;100.00;95331.84;5142049;27;20087;-48
2022/09/15 03:58:48;;;;;;;5.07;1.70;;;;;;;25.08;100.00;95334.91;5150425;27;20070;-52
2022/09/15 04:01:17;;;;;;;3.78;1.63;;;;;;;24.10;100.00;95330.00;5138549;27;20098;-52
2022/09/15 04:03:46;;;;;;;3.80;1.60;;;;;;;25.14;100.00;95331.22;5139694;27;20097;-51
2022/09/15 04:06:19;;;;;;;4.57;1.55;;;;;;;24.96;100.00;95327.06;5143485;27;20078;-51
2022/09/15 04:08:48;;;;;;;2.50;1.67;;;;;;;25.09;100.00;95331.16;5135322;27;20529;-51
2022/09/15 04:11:19;;;;;;;3.83;1.73;;;;;;;25.21;100.00;95334.47;5141550;27;20079;-52
2022/09/15 04:13:48;;;;;;;3.17;1.70;;;;;;;25.61;100.00;95334.88;5133030;27;20090;-52
2022/09/15 04:16:18;;;;;;;4.30;1.63;;;;;;;24.91;100.00;95329.72;5141203;27;20074;-52
2022/09/15 04:18:47;;;;;;;3.10;1.42;;;;;;;24.29;100.00;95325.81;5138741;27;20076;-51
2022/09/15 04:21:17;;;;;;;4.47;1.73;;;;;;;24.81;100.00;95326.97;5140862;27;20618;-51
2022/09/15 04:23:46;;;;;;;3.28;1.73;;;;;;;24.61;100.00;95325.00;5137805;27;20086;-51
2022/09/15 04:26:20;;;;;;;3.45;1.83;;;;;;;24.37;100.00;95329.94;5145371;27;20096;-55
2022/09/15 04:28:49;;;;;;;2.72;1.30;;;;;;;24.21;100.00;95329.00;5142428;27;20097;-51
2022/09/15 04:31:18;;;;;;;2.78;1.42;;;;;;;24.89;100.00;95314.91;5148160;27;20066;-52
2022/09/15 04:33:47;;;;;;;3.22;1.33;;;;;;;24.31;100.00;95323.69;5148914;27;20074;-48
2022/09/15 04:36:17;;;;;;;2.97;1.58;;;;;;;25.08;100.00;95314.16;5139271;27;20070;-51
2022/09/15 04:38:46;;;;;;;2.78;1.60;;;;;;;25.15;100.00;95313.13;5149400;27;20075;-56
2022/09/15 04:41:14;;;;;;;3.30;1.30;;;;;;;24.89;100.00;95312.19;5138963;27;20085;-51
2022/09/15 04:43:45;;;;;;;3.55;1.67;;;;;;;25.06;100.00;95313.63;5147528;27;20141;-50
2022/09/15 04:46:14;;;;;;;2.53;1.50;;;;;;;24.67;100.00;95315.84;5144308;27;20540;-50
2022/09/15 04:48:42;;;;;;;3.92;1.58;;;;;;;24.76;100.00;95308.09;5134220;27;20537;-49
2022/09/15 04:51:13;;;;;;;1.42;1.25;;;;;;;24.15;100.00;95311.16;5140421;27;20085;-53
2022/09/15 04:53:42;;;;;;;3.83;1.58;;;;;;;24.59;100.00;95317.16;5140529;27;20097;-51
2022/09/15 04:56:11;;;;;;;4.47;1.60;;;;;;;24.66;100.00;95295.34;5140425;27;20086;-49
2022/09/15 04:58:41;;;;;;;3.03;1.20;;;;;;;24.34;100.00;95303.50;5143821;27;20074;-52
2022/09/15 05:01:13;;;;;;;2.65;1.35;;;;;;;24.78;100.00;95300.56;5136398;27;20066;-52
2022/09/15 05:03:43;;;;;;;1.95;1.25;;;;;;;25.34;100.00;95298.88;5136617;27;20075;-50
2022/09/15 05:06:13;;;;;;;3.78;1.70;;;;;;;24.79;100.00;95302.16;5135703;27;20074;-53
2022/09/15 05:08:42;;;;;;;2.92;1.50;;;;;;;25.08;100.00;95286.38;5134448;27;20087;-52
2022/09/15 05:11:11;;;;;;;1.85;1.40;;;;;;;25.50;100.00;95296.25;5138830;27;20077;-49
2022/09/15 05:13:40;;;;;;;2.75;1.55;;;;;;;25.73;100.00;95298.41;5145787;27;20085;-52
2022/09/15 05:16:11;;;;;;;3.85;1.40;;;;;;;25.79;100.00;95297.38;5132335;27;20078;-55
2022/09/15 05:18:41;;;;;;;2.20;1.30;;;;;;;24.78;100.00;95304.06;5137979;27;20075;-48
2022/09/15 05:21:12;;;;;;;1.90;1.10;;;;;;;24.94;100.00;95302.22;5145015;27;20097;-53
2022/09/15 05:23:40;;;;;;;2.78;1.20;;;;;;;24.74;100.00;95308.38;5140705;27;20062;-49
2022/09/15 05:26:11;;;;;;;2.35;1.45;;;;;;;24.99;100.00;95312.25;5139072;27;20078;-55
2022/09/15 05:28:40;;;;;;;3.25;1.63;;;;;;;25.33;100.00;95307.25;5138339;27;20093;-51
2022/09/15 05:31:11;;;;;;;1.63;1.20;;;;;;;24.51;100.00;95319.53;5131868;27;20086;-50
2022/09/15 05:33:39;;;;;;;1.90;1.00;;;;;;;24.73;100.00;95306.72;5148858;27;20085;-50
2022/09/15 05:36:08;;;;;;;1.60;1.05;;;;;;;24.50;100.00;95318.75;5148602;27;20698;-52
2022/09/15 05:38:36;;;;;;;2.92;1.20;;;;;;;25.07;100.00;95314.41;5133892;27;20090;-54
2022/09/15 05:41:06;;;;;;;2.25;1.20;;;;;;;24.60;100.00;95320.66;5146303;27;20078;-49
2022/09/15 05:43:35;;;;;;;2.23;1.20;;;;;;;24.85;100.00;95323.50;5141562;27;20082;-49
2022/09/15 05:46:05;;;;;;;1.80;1.20;;;;;;;25.42;100.00;95319.16;5142348;27;20070;-50
2022/09/15 05:48:35;;;;;;;2.67;1.40;;;;;;;24.97;100.00;95317.06;5142097;27;20082;-51
2022/09/15 05:51:04;;;;;;;2.60;1.10;;;;;;;24.39;100.00;95323.19;5140927;27;20456;-51
2022/09/15 05:53:33;;;;;;;3.08;1.10;;;;;;;24.54;100.00;95330.63;5140428;27;20085;-45
2022/09/15 05:56:04;;;;;;;2.72;1.00;;;;;;;24.24;100.00;95327.69;5134180;27;20074;-49
2022/09/15 05:58:33;;;;;;;2.30;0.90;;;;;;;24.93;100.00;95324.06;5137765;27;20075;-53
2022/09/15 06:01:06;;;;;;;1.60;1.08;;;;;;;25.12;100.00;95322.59;5146043;27;20089;-51
2022/09/15 06:03:36;;;;;;;2.47;1.10;;;;;;;25.14;100.00;95323.09;5132584;27;20090;-46
2022/09/15 06:06:06;;;;;;;2.97;1.10;;;;;;;24.77;100.00;95324.00;5144792;27;20078;-50
2022/09/15 06:08:35;;;;;;;2.53;1.20;;;;;;;25.06;100.00;95323.59;5146152;27;20067;-47
2022/09/15 06:11:05;;;;;;;2.25;1.10;;;;;;;24.76;100.00;95321.56;5144096;27;20079;-51
2022/09/15 06:13:34;;;;;;;1.38;1.00;;;;;;;24.07;100.00;95323.25;5130552;27;20074;-47
2022/09/15 06:16:04;;;;;;;2.88;1.25;;;;;;;24.55;100.00;95320.66;5139042;27;20077;-49
2022/09/15 06:18:36;;;;;;;1.30;1.00;;;;;;;24.99;100.00;95323.03;5146455;27;20089;-47
2022/09/15 06:21:06;;;;;;;2.08;1.10;;;;;;;24.41;100.00;95330.25;5141855;27;20665;-51
2022/09/15 06:23:35;;;;;;;1.63;1.13;;;;;;;25.04;100.00;95326.53;5142238;27;20532;-51
2022/09/15 06:26:08;;;;;;;2.75;1.30;;;;;;;25.10;100.00;95330.88;5139149;27;20520;-52
2022/09/15 06:28:36;;;;;;;2.70;1.00;;;;;;;24.99;100.00;95328.44;5134641;27;20086;-51
2022/09/15 06:31:09;;;;;;;1.80;1.00;;;;;;;25.49;100.00;95330.50;5137391;27;20086;-49
2022/09/15 06:33:41;;;;;;;3.38;1.10;;;;;;;25.82;100.00;95341.13;5142516;27;20078;-53
2022/09/15 06:36:10;;;;;;;3.13;1.05;;;;;;;25.40;100.00;95336.69;5148380;27;20107;-50
2022/09/15 06:38:39;;;;;;;4.88;1.20;;;;;;;25.16;100.00;95344.44;5146273;27;20083;-55
2022/09/15 06:41:08;;;;;;;1.80;0.98;;;;;;;25.06;100.00;95345.19;5138806;27;20046;-47
2022/09/15 06:43:36;;;;;;;2.03;0.90;;;;;;;25.82;100.00;95351.94;5140472;27;20521;-54
2022/09/15 06:46:07;;;;;;;1.73;0.95;;;;;;;26.14;100.00;95346.28;5135324;27;20082;-49
2022/09/15 06:48:36;;;;;;;2.25;1.00;;;;;;;25.69;100.00;95353.22;5143341;27;20569;-55
2022/09/15 06:51:07;;;;;;;1.83;1.00;;;;;;;26.11;100.00;95360.31;5143796;27;20531;-50
2022/09/15 06:53:37;;;;;;;2.88;1.02;;;;;;;25.75;100.00;95352.97;5143368;27;20082;-53
2022/09/15 06:56:07;;;;;;;2.92;1.00;;;;;;;25.07;100.00;95354.88;5151554;27;20082;-50
2022/09/15 06:58:37;;;;;;;1.50;0.80;;;;;;;25.35;100.00;95353.66;5137233;27;20468;-50
2022/09/15 07:01:08;;;;;;;3.47;1.20;;;;;;;25.37;100.00;95356.13;5134768;27;20476;-51
2022/09/15 07:03:38;;;;;;;2.20;1.20;;;;;;;25.38;100.00;95365.84;5147421;27;20517;-52
2022/09/15 07:06:08;;;;;;;1.63;1.17;;;;;;;26.19;100.00;95360.63;5141721;27;20078;-52
2022/09/15 07:08:37;;;;;;;2.13;1.10;;;;;;;25.45;100.00;95361.81;5130295;27;20492;-48
2022/09/15 07:11:05;;;;;;;1.88;1.00;;;;;;;25.70;100.00;95360.25;5129665;27;20071;-50
2022/09/15 07:13:34;;;;;;;2.60;0.90;;;;;;;25.27;100.00;95373.88;5129139;27;20122;-52
2022/09/15 07:16:03;;;;;;;2.17;1.20;;;;;;;26.20;100.00;95369.53;5130718;27;20083;-52
2022/09/15 07:18:32;;;;;;;2.55;1.25;;;;;;;26.13;100.00;95377.91;5138276;27;20078;-52
2022/09/15 07:21:02;;;;;;;1.80;1.05;;;;;;;25.89;100.00;95374.91;5134927;27;20770;-52
2022/09/15 07:23:32;;;;;;;3.67;1.20;;;;;;;25.77;100.00;95374.31;5136460;27;20082;-51
2022/09/15 07:26:07;;;;;;;;;;;;;;;25.83;100.00;95375.16;5139268;27;20086;-51
2022/09/15 07:28:36;;;;;;;1.30;0.90;;;;;;;25.22;100.00;95367.66;5141829;27;19973;-49
2022/09/15 07:31:06;;;;;;;1.80;1.10;;;;;;;25.26;100.00;95371.47;5141952;27;20078;-52
2022/09/15 07:33:35;;;;;;;1.70;1.00;;;;;;;25.15;100.00;95373.28;5143192;27;20083;-49
2022/09/15 07:36:04;;;;;;;1.65;1.05;;;;;;;25.18;100.00;95371.97;5142345;27;20075;-55
2022/09/15 07:38:34;;;;;;;2.78;0.98;;;;;;;25.60;100.00;95371.03;5138738;27;20135;-48
2022/09/15 07:41:04;;;;;;;2.05;1.00;;;;;;;25.14;100.00;95374.38;5134348;27;20069;-49
2022/09/15 07:43:32;;;;;;;2.47;1.00;;;;;;;25.61;100.00;95369.97;5140495;27;20070;-50
2022/09/15 07:46:01;;;;;;;2.05;1.00;;;;;;;25.76;100.00;95367.28;5136247;27;20174;-52
2022/09/15 07:48:30;;;;;;;1.52;1.00;;;;;;;26.13;100.00;95371.69;5139024;27;20083;-54
2022/09/15 07:50:59;;;;;;;1.75;0.95;;;;;;;26.10;100.00;95373.03;5135612;27;20062;-51
2022/09/15 07:53:28;;;;;;;1.50;1.10;;;;;;;25.52;100.00;95378.56;5137712;27;20074;-51
2022/09/15 07:55:58;;;;;;;4.10;1.35;;;;;;;25.82;100.00;95371.66;5136810;27;20089;-53
2022/09/15 07:58:27;;;;;;;2.28;0.90;;;;;;;25.91;100.00;95372.75;5134074;27;20086;-51
2022/09/15 08:01:01;;;;;;;2.75;1.02;;;;;;;25.93;100.00;95370.59;5141825;27;20111;-50
2022/09/15 08:03:30;;;;;;;3.50;0.95;;;;;;;25.94;100.00;95368.69;5153058;27;20066;-50
2022/09/15 08:05:58;;;;;;;2.03;0.90;;;;;;;26.15;100.00;95364.94;5143433;27;20590;-47
2022/09/15 08:08:27;;;;;;;2.75;0.95;;;;;;;27.05;100.00;95367.00;5129305;27;20101;-54
2022/09/15 08:10:58;;;;;;;1.98;0.90;;;;;;;26.63;100.00;95373.56;5134442;27;20067;-51
2022/09/15 08:13:28;;;;;;;1.63;1.00;;;;;;;27.24;100.00;95355.59;5141852;27;20078;-51
2022/09/15 08:15:57;;;;;;;0.98;0.80;;;;;;;26.50;100.00;95363.34;5147165;27;20104;-54
2022/09/15 08:18:25;;;;;;;5.25;1.13;;;;;;;26.16;100.00;95368.44;5145552;27;20090;-49
2022/09/15 08:20:54;;;;;;;4.60;1.08;;;;;;;26.32;100.00;95372.75;5140259;27;20067;-54
2022/09/15 08:23:22;;;;;;;1.63;0.90;;;;;;;26.42;100.00;95363.84;5140479;27;20465;-49
2022/09/15 08:25:51;;;;;;;2.75;0.95;;;;;;;26.30;100.00;95366.81;5150304;27;20578;-51
2022/09/15 08:28:21;;;;;;;2.97;1.00;;;;;;;26.09;100.00;95368.72;5151391;27;20074;-49
2022/09/15 08:30:50;;;;;;;2.55;1.15;;;;;;;26.57;100.00;95369.28;5139430;27;20079;-51
2022/09/15 08:33:18;;;;;;;1.20;0.98;;;;;;;26.56;100.00;95362.22;5142929;27;20719;-53
2022/09/15 08:35:47;;;;;;;1.73;0.90;;;;;;;26.71;100.00;95362.22;5140275;27;20565;-51
2022/09/15 08:38:15;;;;;;;1.50;1.02;;;;;;;27.56;100.00;95357.88;5147593;27;20460;-52
2022/09/15 08:40:44;;;;;;;1.63;0.90;;;;;;;27.63;100.00;95350.25;5134485;27;20453;-50
2022/09/15 08:43:16;;;;;;;2.97;1.30;;;;;;;27.41;100.00;95358.78;5148144;27;20084;-48
2022/09/15 08:45:50;;;;;;;2.13;1.00;;;;;;;27.05;100.00;95366.19;5150453;27;20672;-49
2022/09/15 08:48:23;;;;;;;4.93;1.25;;;;;;;27.13;100.00;95369.16;5146500;27;20075;-48
2022/09/15 08:50:53;;;;;;;1.00;0.77;;;;;;;26.36;100.00;95373.88;5145888;27;20079;-50
2022/09/15 08:53:25;;;;;;;2.95;1.00;;;;;;;26.75;100.00;95373.31;5139208;27;20151;-47
2022/09/15 08:55:55;;;;;;;1.67;1.08;;;;;;;26.57;100.00;95369.28;5136675;27;20682;-53
2022/09/15 08:58:25;;;;;;;3.20;1.20;;;;;;;26.82;100.00;95364.91;5146985;27;20075;-52
2022/09/15 09:01:02;;;;;;;2.05;0.98;;;;;;;26.35;100.00;95369.53;5138708;27;20093;-51
2022/09/15 09:03:49;;;;;;;3.35;1.10;;;;;;;26.07;100.00;95372.75;5144152;27;20477;-54
2022/09/15 09:06:26;;;;;;;2.53;0.90;;;;;;;26.48;100.00;95377.13;5148351;27;20082;-48
2022/09/15 09:09:02;;;;;;;2.78;0.93;;;;;;;26.33;100.00;95357.38;5136448;27;20079;-49
2022/09/15 09:11:50;;;;;;;1.70;1.00;;;;;;;26.31;100.00;95354.94;5131947;27;20095;-51
2022/09/15 09:14:23;;;;;;;3.58;1.30;;;;;;;26.69;100.00;95360.88;5139292;27;20086;-52
2022/09/15 09:17:10;;;;;;;1.40;0.90;;;;;;;26.58;100.00;95353.84;5138792;27;20082;-49
2022/09/15 09:19:56;;;;;;;2.38;1.10;;;;;;;25.99;100.00;95372.22;5145754;27;20074;-50
2022/09/15 09:22:27;;;;;;;2.15;1.10;;;;;;;26.58;100.00;95368.19;5132118;27;20083;-47
2022/09/15 09:24:57;;;;;;;3.33;1.40;;;;;;;26.43;100.00;95346.56;5142336;27;20070;-52
2022/09/15 09:27:29;;;;;;;2.70;1.10;;;;;;;26.31;100.00;95367.63;5143809;27;20078;-48
2022/09/15 09:30:01;;;;;;;1.40;1.02;;;;;;;26.13;100.00;95369.00;5140456;27;20107;-48
2022/09/15 09:32:37;;;;;;;2.90;1.40;;;;;;;26.58;100.00;95364.69;5141509;27;20070;-50
2022/09/15 09:35:15;;;;;;;2.08;1.33;;;;;;;26.77;100.00;95365.69;5146578;27;20089;-55
2022/09/15 09:37:43;;;;;;;2.60;1.30;;;;;;;26.02;100.00;95365.47;5138666;27;20521;-47
2022/09/15 09:40:13;;;;;;;2.20;1.10;;;;;;;26.12;100.00;95362.78;5139444;27;20532;-54
2022/09/15 09:42:42;;;;;;;1.98;1.40;;;;;;;27.04;100.00;95364.56;5144049;27;20042;-54
2022/09/15 09:45:13;;;;;;;3.15;1.30;;;;;;;27.46;100.00;95356.06;5143488;27;20543;-51
2022/09/15 09:47:43;;;;;;;2.30;1.48;;;;;;;27.93;100.00;95344.66;5131938;27;20484;-52
2022/09/15 09:50:34;;;;;;;4.90;1.08;;;;;;;27.14;100.00;95341.00;5129190;27;20074;-55
2022/09/15 09:53:20;;;;;;;1.70;1.15;;;;;;;27.49;100.00;95338.41;5137794;27;20081;-49
2022/09/15 09:55:48;;;;;;;2.63;1.00;;;;;;;27.75;100.00;95331.75;5139224;27;20074;-55
2022/09/15 09:58:26;;;;;;;2.45;0.90;;;;;;;28.55;96.34;95330.63;5143879;27;20074;-48
2022/09/15 10:01:10;;;;;;;3.30;1.20;;;;;;;29.69;84.71;95329.06;5134563;27;20477;-51
2022/09/15 10:03:40;;;;;;;3.63;1.10;;;;;;;29.49;85.23;95324.69;5140564;27;20432;-51
2022/09/15 10:06:29;;;;;;;2.40;0.98;;;;;;;28.62;91.99;95302.06;5148018;27;20078;-51
2022/09/15 10:09:02;;;;;;;3.55;0.98;;;;;;;29.83;83.80;95308.19;5138440;27;20526;-50
2022/09/15 10:11:41;;;;;;;3.60;1.05;;;;;;;29.51;74.48;95312.44;5137367;27;20525;-55
2022/09/15 10:14:19;;;;;;;3.55;1.20;;;;;;;30.18;69.13;95311.47;5132350;27;20077;-49
2022/09/15 10:17:01;;;;;;;2.45;0.82;;;;;;;28.96;77.56;95313.94;5144205;27;20078;-49
2022/09/15 10:19:33;;;;;;;1.52;1.10;;;;;;;28.97;80.00;95312.81;5138683;27;20520;-48
2022/09/15 10:22:02;;;;;;;3.38;0.93;;;;;;;28.74;77.02;95315.25;5150752;27;20089;-49
2022/09/15 10:24:35;;;;;;;1.50;1.00;;;;;;;29.21;75.00;95304.69;5147436;27;20086;-54
2022/09/15 10:27:10;;;;;;;2.05;0.95;;;;;;;29.84;72.39;95312.56;5136354;27;21016;-51
2022/09/15 10:29:39;;;;;;;4.40;0.82;;;;;;;30.05;63.94;95302.16;5147166;27;20086;-56
2022/09/15 10:32:16;;;;;;;1.77;0.80;;;;;;;29.63;63.91;95297.63;5145180;27;20078;-53
2022/09/15 10:35:01;;;;;;;4.05;0.77;;;;;;;29.79;68.22;95296.31;5137609;27;20574;-54
2022/09/15 10:37:43;;;;;;;2.25;0.77;;;;;;;28.72;74.12;95316.63;5149974;27;20093;-51
2022/09/15 10:40:32;;;;;;;1.67;0.85;;;;;;;28.78;71.14;95312.78;5137624;27;20082;-53
2022/09/15 10:43:11;;;;;;;2.58;0.80;;;;;;;28.72;69.66;95313.91;5136897;27;20082;-51
2022/09/15 10:45:40;;;;;;;2.45;0.70;;;;;;;29.13;66.69;95303.44;5134965;27;20085;-50
2022/09/15 10:48:23;;;;;;;1.63;0.82;;;;;;;28.66;79.90;95310.44;5139456;27;20101;-50
2022/09/15 10:50:57;;;;;;;0.90;0.80;;;;;;;27.55;100.00;95304.81;5137115;27;20086;-55
2022/09/15 10:53:45;;;;;;;1.58;0.68;;;;;;;26.64;100.00;95315.72;5136742;27;20090;-52
2022/09/15 10:56:21;;;;;;;6.30;1.70;;;;;;;24.32;100.00;95367.59;5092918;27;20097;-47
2022/09/15 10:58:59;;;;;;;5.93;1.60;;;;;;;24.81;100.00;95333.19;5136631;27;20082;-49
2022/09/15 11:01:42;;;;;;;3.53;0.93;;;;;;;25.38;100.00;95338.84;5140083;27;20099;-49
2022/09/15 11:04:27;;;;;;;2.60;1.20;;;;;;;25.77;100.00;95333.78;5143108;27;20078;-51
2022/09/15 11:07:03;;;;;;;3.35;1.17;;;;;;;25.86;100.00;95334.91;5147111;27;20058;-51
2022/09/15 11:09:34;;;;;;;1.92;1.30;;;;;;;26.35;100.00;95323.56;5132830;27;20077;-49
2022/09/15 11:12:11;;;;;;;2.70;1.27;;;;;;;26.37;100.00;95329.53;5143058;27;20086;-52
2022/09/15 11:14:49;;;;;;;3.50;1.17;;;;;;;26.67;100.00;95328.69;5130366;27;20479;-50
2022/09/15 11:17:32;;;;;;;2.15;1.20;;;;;;;26.20;100.00;95329.00;5136262;27;20071;-51
2022/09/15 11:20:24;;;;;;;1.73;1.13;;;;;;;27.20;100.00;95312.03;5143035;27;20599;-51
2022/09/15 11:22:57;;;;;;;1.98;1.10;;;;;;;27.55;100.00;95313.72;5140867;27;20075;-48
2022/09/15 11:25:27;;;;;;;1.77;0.95;;;;;;;26.98;100.00;95315.09;5146839;27;20074;-47
2022/09/15 11:27:57;;;;;;;1.50;0.90;;;;;;;27.36;100.00;95318.19;5140687;27;20082;-47
2022/09/15 11:30:31;;;;;;;1.95;0.80;;;;;;;26.98;100.00;95310.47;5136798;27;20089;-53
2022/09/15 11:33:03;;;;;;;1.95;1.00;;;;;;;26.94;100.00;95316.69;5138701;27;20077;-49
2022/09/15 11:35:40;;;;;;;1.45;0.95;;;;;;;27.13;100.00;95311.53;5136470;27;20075;-51
2022/09/15 11:38:21;;;;;;;1.88;0.80;;;;;;;26.56;100.00;95326.28;5143234;27;20478;-50
2022/09/15 11:40:55;;;;;;;1.10;0.80;;;;;;;26.49;100.00;95323.84;5136118;27;20552;-48
2022/09/15 11:43:30;;;;;;;1.70;0.70;;;;;;;26.90;100.00;95338.09;5148345;27;20089;-52
2022/09/15 11:45:59;;;;;;;1.42;1.00;;;;;;;26.42;100.00;95331.41;5136109;27;20074;-49
2022/09/15 11:48:30;;;;;;;1.98;1.00;;;;;;;27.04;100.00;95361.84;5138404;27;20087;-51